sensor_id;sensor_type;location;lat;lon;timestamp;P1;durP1;ratioP1;P2;durP2;ratioP2
55063;SDS011;40963;52.168;21.296;2024-02-16T00:01:00;15.38;;;7.22;;
55063;SDS011;40963;52.168;21.296;2024-02-16T00:03:26;21.65;;;7.95;;
55063;SDS011;40963;52.168;21.296;2024-02-16T00:05:53;20.10;;;8.05;;
55063;SDS011;40963;52.168;21.296;2024-02-16T00:08:18;20.02;;;7.95;;
55063;SDS011;40963;52.168;21.296;2024-02-16T00:10:45;20.77;;;8.55;;
55063;SDS011;40963;52.168;21.296;2024-02-16T00:13:11;22.98;;;8.05;;
55063;SDS011;40963;52.168;21.296;2024-02-16T00:15:37;17.95;;;7.63;;
55063;SDS011;40963;52.168;21.296;2024-02-16T00:18:03;20.33;;;8.30;;
55063;SDS011;40963;52.168;21.296;2024-02-16T00:20:30;15.18;;;6.90;;
55063;SDS011;40963;52.168;21.296;2024-02-16T00:22:56;18.45;;;7.65;;
55063;SDS011;40963;52.168;21.296;2024-02-16T00:25:22;17.05;;;7.18;;
55063;SDS011;40963;52.168;21.296;2024-02-16T00:27:48;22.70;;;8.18;;
55063;SDS011;40963;52.168;21.296;2024-02-16T00:30:13;20.73;;;6.85;;
55063;SDS011;40963;52.168;21.296;2024-02-16T00:32:40;15.05;;;7.40;;
55063;SDS011;40963;52.168;21.296;2024-02-16T00:35:06;18.40;;;7.70;;
55063;SDS011;40963;52.168;21.296;2024-02-16T00:37:32;19.23;;;8.20;;
55063;SDS011;40963;52.168;21.296;2024-02-16T00:39:57;14.35;;;7.38;;
55063;SDS011;40963;52.168;21.296;2024-02-16T00:42:23;20.55;;;7.32;;
55063;SDS011;40963;52.168;21.296;2024-02-16T00:44:49;15.57;;;7.35;;
55063;SDS011;40963;52.168;21.296;2024-02-16T00:47:15;17.85;;;7.35;;
55063;SDS011;40963;52.168;21.296;2024-02-16T00:49:41;15.73;;;6.80;;
55063;SDS011;40963;52.168;21.296;2024-02-16T00:52:08;14.35;;;6.50;;
55063;SDS011;40963;52.168;21.296;2024-02-16T00:54:35;16.48;;;7.00;;
55063;SDS011;40963;52.168;21.296;2024-02-16T00:57:01;14.23;;;6.53;;
55063;SDS011;40963;52.168;21.296;2024-02-16T00:59:28;15.57;;;6.72;;
55063;SDS011;40963;52.168;21.296;2024-02-16T01:01:53;17.92;;;6.45;;
55063;SDS011;40963;52.168;21.296;2024-02-16T01:04:19;16.17;;;6.38;;
55063;SDS011;40963;52.168;21.296;2024-02-16T01:06:45;16.52;;;7.13;;
55063;SDS011;40963;52.168;21.296;2024-02-16T01:09:11;13.55;;;6.55;;
55063;SDS011;40963;52.168;21.296;2024-02-16T01:11:38;14.98;;;6.40;;
55063;SDS011;40963;52.168;21.296;2024-02-16T01:14:06;15.57;;;6.43;;
55063;SDS011;40963;52.168;21.296;2024-02-16T01:16:32;11.52;;;6.07;;
55063;SDS011;40963;52.168;21.296;2024-02-16T01:18:57;20.45;;;6.65;;
55063;SDS011;40963;52.168;21.296;2024-02-16T01:21:23;11.30;;;6.10;;
55063;SDS011;40963;52.168;21.296;2024-02-16T01:23:49;12.13;;;6.25;;
55063;SDS011;40963;52.168;21.296;2024-02-16T01:26:14;22.08;;;8.30;;
55063;SDS011;40963;52.168;21.296;2024-02-16T01:28:40;23.02;;;8.60;;
55063;SDS011;40963;52.168;21.296;2024-02-16T01:31:06;17.17;;;6.65;;
55063;SDS011;40963;52.168;21.296;2024-02-16T01:33:31;14.35;;;6.90;;
55063;SDS011;40963;52.168;21.296;2024-02-16T01:35:59;16.75;;;7.18;;
55063;SDS011;40963;52.168;21.296;2024-02-16T01:38:25;13.15;;;6.65;;
55063;SDS011;40963;52.168;21.296;2024-02-16T01:40:50;10.38;;;5.93;;
55063;SDS011;40963;52.168;21.296;2024-02-16T01:43:19;13.32;;;6.50;;
55063;SDS011;40963;52.168;21.296;2024-02-16T01:45:46;12.45;;;6.18;;
55063;SDS011;40963;52.168;21.296;2024-02-16T01:48:11;9.90;;;5.80;;
55063;SDS011;40963;52.168;21.296;2024-02-16T01:50:38;16.67;;;6.07;;
55063;SDS011;40963;52.168;21.296;2024-02-16T01:53:04;18.02;;;6.50;;
55063;SDS011;40963;52.168;21.296;2024-02-16T01:55:30;19.67;;;7.35;;
55063;SDS011;40963;52.168;21.296;2024-02-16T01:57:56;14.63;;;6.38;;
55063;SDS011;40963;52.168;21.296;2024-02-16T02:00:24;13.82;;;6.22;;
55063;SDS011;40963;52.168;21.296;2024-02-16T02:02:50;13.40;;;6.93;;
55063;SDS011;40963;52.168;21.296;2024-02-16T02:05:17;10.30;;;5.90;;
55063;SDS011;40963;52.168;21.296;2024-02-16T02:07:43;13.40;;;5.53;;
55063;SDS011;40963;52.168;21.296;2024-02-16T02:10:09;14.18;;;6.25;;
55063;SDS011;40963;52.168;21.296;2024-02-16T02:12:38;19.52;;;7.45;;
55063;SDS011;40963;52.168;21.296;2024-02-16T02:15:04;13.15;;;6.85;;
55063;SDS011;40963;52.168;21.296;2024-02-16T02:17:30;11.95;;;5.70;;
55063;SDS011;40963;52.168;21.296;2024-02-16T02:19:56;13.60;;;6.13;;
55063;SDS011;40963;52.168;21.296;2024-02-16T02:22:21;11.82;;;6.10;;
55063;SDS011;40963;52.168;21.296;2024-02-16T02:24:47;10.13;;;6.10;;
55063;SDS011;40963;52.168;21.296;2024-02-16T02:27:16;20.77;;;6.93;;
55063;SDS011;40963;52.168;21.296;2024-02-16T02:29:42;15.63;;;6.50;;
55063;SDS011;40963;52.168;21.296;2024-02-16T02:32:08;13.05;;;6.18;;
55063;SDS011;40963;52.168;21.296;2024-02-16T02:34:34;16.33;;;7.05;;
55063;SDS011;40963;52.168;21.296;2024-02-16T02:37:01;17.98;;;7.10;;
55063;SDS011;40963;52.168;21.296;2024-02-16T02:39:29;15.65;;;6.38;;
55063;SDS011;40963;52.168;21.296;2024-02-16T02:41:55;28.15;;;9.20;;
55063;SDS011;40963;52.168;21.296;2024-02-16T02:44:20;12.13;;;5.68;;
55063;SDS011;40963;52.168;21.296;2024-02-16T02:46:46;15.82;;;5.90;;
55063;SDS011;40963;52.168;21.296;2024-02-16T02:49:12;16.58;;;7.45;;
55063;SDS011;40963;52.168;21.296;2024-02-16T02:51:37;17.83;;;7.93;;
55063;SDS011;40963;52.168;21.296;2024-02-16T02:54:03;14.80;;;6.68;;
55063;SDS011;40963;52.168;21.296;2024-02-16T02:56:29;14.18;;;7.00;;
55063;SDS011;40963;52.168;21.296;2024-02-16T02:58:54;17.40;;;6.43;;
55063;SDS011;40963;52.168;21.296;2024-02-16T03:01:20;12.70;;;6.03;;
55063;SDS011;40963;52.168;21.296;2024-02-16T03:03:47;16.48;;;6.78;;
55063;SDS011;40963;52.168;21.296;2024-02-16T03:06:12;13.65;;;5.57;;
55063;SDS011;40963;52.168;21.296;2024-02-16T03:08:42;19.10;;;5.85;;
55063;SDS011;40963;52.168;21.296;2024-02-16T03:11:07;16.45;;;6.60;;
55063;SDS011;40963;52.168;21.296;2024-02-16T03:13:33;15.23;;;6.68;;
55063;SDS011;40963;52.168;21.296;2024-02-16T03:15:59;12.75;;;5.75;;
55063;SDS011;40963;52.168;21.296;2024-02-16T03:18:24;10.82;;;5.60;;
55063;SDS011;40963;52.168;21.296;2024-02-16T03:20:50;21.20;;;7.50;;
55063;SDS011;40963;52.168;21.296;2024-02-16T03:23:16;20.95;;;6.70;;
55063;SDS011;40963;52.168;21.296;2024-02-16T03:25:41;18.70;;;6.07;;
55063;SDS011;40963;52.168;21.296;2024-02-16T03:28:13;21.88;;;7.22;;
55063;SDS011;40963;52.168;21.296;2024-02-16T03:30:39;17.25;;;6.20;;
55063;SDS011;40963;52.168;21.296;2024-02-16T03:33:05;13.43;;;6.22;;
55063;SDS011;40963;52.168;21.296;2024-02-16T03:35:31;11.73;;;6.03;;
55063;SDS011;40963;52.168;21.296;2024-02-16T03:37:57;14.20;;;6.72;;
55063;SDS011;40963;52.168;21.296;2024-02-16T03:40:23;15.75;;;6.20;;
55063;SDS011;40963;52.168;21.296;2024-02-16T03:42:50;14.85;;;6.22;;
55063;SDS011;40963;52.168;21.296;2024-02-16T03:45:19;22.63;;;6.05;;
55063;SDS011;40963;52.168;21.296;2024-02-16T03:47:45;14.40;;;6.50;;
55063;SDS011;40963;52.168;21.296;2024-02-16T03:50:13;15.40;;;7.05;;
55063;SDS011;40963;52.168;21.296;2024-02-16T03:52:39;19.38;;;7.60;;
55063;SDS011;40963;52.168;21.296;2024-02-16T03:55:05;17.63;;;6.75;;
55063;SDS011;40963;52.168;21.296;2024-02-16T03:57:31;17.50;;;7.80;;
55063;SDS011;40963;52.168;21.296;2024-02-16T03:59:57;14.20;;;6.63;;
55063;SDS011;40963;52.168;21.296;2024-02-16T04:02:22;21.35;;;7.75;;
55063;SDS011;40963;52.168;21.296;2024-02-16T04:04:48;20.55;;;7.78;;
55063;SDS011;40963;52.168;21.296;2024-02-16T04:07:14;24.88;;;7.75;;
55063;SDS011;40963;52.168;21.296;2024-02-16T04:09:39;15.30;;;6.85;;
55063;SDS011;40963;52.168;21.296;2024-02-16T04:12:05;24.50;;;9.77;;
55063;SDS011;40963;52.168;21.296;2024-02-16T04:14:31;25.23;;;8.60;;
55063;SDS011;40963;52.168;21.296;2024-02-16T04:16:58;28.45;;;8.07;;
55063;SDS011;40963;52.168;21.296;2024-02-16T04:19:25;25.48;;;8.75;;
55063;SDS011;40963;52.168;21.296;2024-02-16T04:21:51;20.85;;;7.35;;
55063;SDS011;40963;52.168;21.296;2024-02-16T04:24:17;14.43;;;6.63;;
55063;SDS011;40963;52.168;21.296;2024-02-16T04:26:42;13.20;;;6.45;;
55063;SDS011;40963;52.168;21.296;2024-02-16T04:29:08;12.27;;;6.45;;
55063;SDS011;40963;52.168;21.296;2024-02-16T04:31:34;19.35;;;7.50;;
55063;SDS011;40963;52.168;21.296;2024-02-16T04:33:59;14.95;;;7.13;;
55063;SDS011;40963;52.168;21.296;2024-02-16T04:36:26;15.82;;;7.65;;
55063;SDS011;40963;52.168;21.296;2024-02-16T04:38:52;11.13;;;6.57;;
55063;SDS011;40963;52.168;21.296;2024-02-16T04:41:19;19.42;;;7.13;;
55063;SDS011;40963;52.168;21.296;2024-02-16T04:43:45;21.00;;;7.47;;
55063;SDS011;40963;52.168;21.296;2024-02-16T04:46:14;22.05;;;6.85;;
55063;SDS011;40963;52.168;21.296;2024-02-16T04:48:40;16.13;;;7.53;;
55063;SDS011;40963;52.168;21.296;2024-02-16T04:51:06;21.23;;;7.85;;
55063;SDS011;40963;52.168;21.296;2024-02-16T04:53:31;20.27;;;8.15;;
55063;SDS011;40963;52.168;21.296;2024-02-16T04:55:57;15.05;;;7.55;;
55063;SDS011;40963;52.168;21.296;2024-02-16T04:58:23;28.75;;;8.68;;
55063;SDS011;40963;52.168;21.296;2024-02-16T05:00:49;21.63;;;7.97;;
55063;SDS011;40963;52.168;21.296;2024-02-16T05:03:14;13.70;;;7.45;;
55063;SDS011;40963;52.168;21.296;2024-02-16T05:05:40;20.67;;;8.50;;
55063;SDS011;40963;52.168;21.296;2024-02-16T05:08:06;15.65;;;7.45;;
55063;SDS011;40963;52.168;21.296;2024-02-16T05:10:31;18.45;;;7.30;;
55063;SDS011;40963;52.168;21.296;2024-02-16T05:12:57;13.82;;;7.63;;
55063;SDS011;40963;52.168;21.296;2024-02-16T05:15:23;17.10;;;8.38;;
55063;SDS011;40963;52.168;21.296;2024-02-16T05:17:49;20.88;;;8.70;;
55063;SDS011;40963;52.168;21.296;2024-02-16T05:20:14;20.40;;;7.85;;
55063;SDS011;40963;52.168;21.296;2024-02-16T05:22:43;14.23;;;8.13;;
55063;SDS011;40963;52.168;21.296;2024-02-16T05:25:11;18.65;;;7.45;;
55063;SDS011;40963;52.168;21.296;2024-02-16T05:27:37;29.30;;;9.45;;
55063;SDS011;40963;52.168;21.296;2024-02-16T05:30:03;24.35;;;7.95;;
55063;SDS011;40963;52.168;21.296;2024-02-16T05:32:33;16.92;;;7.15;;
55063;SDS011;40963;52.168;21.296;2024-02-16T05:35:03;32.60;;;9.88;;
55063;SDS011;40963;52.168;21.296;2024-02-16T05:37:36;19.90;;;8.32;;
55063;SDS011;40963;52.168;21.296;2024-02-16T05:40:02;22.35;;;8.05;;
55063;SDS011;40963;52.168;21.296;2024-02-16T05:42:46;35.38;;;9.45;;
55063;SDS011;40963;52.168;21.296;2024-02-16T05:45:13;26.75;;;9.43;;
55063;SDS011;40963;52.168;21.296;2024-02-16T05:47:39;24.20;;;8.40;;
55063;SDS011;40963;52.168;21.296;2024-02-16T05:50:10;22.70;;;8.32;;
55063;SDS011;40963;52.168;21.296;2024-02-16T05:52:37;24.20;;;7.75;;
55063;SDS011;40963;52.168;21.296;2024-02-16T05:55:03;12.70;;;7.38;;
55063;SDS011;40963;52.168;21.296;2024-02-16T05:57:30;22.42;;;8.55;;
55063;SDS011;40963;52.168;21.296;2024-02-16T05:59:56;18.75;;;8.52;;
55063;SDS011;40963;52.168;21.296;2024-02-16T06:02:21;18.00;;;6.85;;
55063;SDS011;40963;52.168;21.296;2024-02-16T06:04:50;15.75;;;8.13;;
55063;SDS011;40963;52.168;21.296;2024-02-16T06:07:16;21.45;;;7.25;;
55063;SDS011;40963;52.168;21.296;2024-02-16T06:09:41;23.65;;;10.25;;
55063;SDS011;40963;52.168;21.296;2024-02-16T06:12:07;41.00;;;15.90;;
55063;SDS011;40963;52.168;21.296;2024-02-16T06:14:34;53.70;;;19.98;;
55063;SDS011;40963;52.168;21.296;2024-02-16T06:17:01;46.85;;;19.50;;
55063;SDS011;40963;52.168;21.296;2024-02-16T06:19:27;39.67;;;16.77;;
55063;SDS011;40963;52.168;21.296;2024-02-16T06:21:53;49.60;;;18.17;;
55063;SDS011;40963;52.168;21.296;2024-02-16T06:24:19;39.22;;;14.73;;
55063;SDS011;40963;52.168;21.296;2024-02-16T06:26:48;22.92;;;12.48;;
55063;SDS011;40963;52.168;21.296;2024-02-16T06:29:15;26.58;;;10.77;;
55063;SDS011;40963;52.168;21.296;2024-02-16T06:31:41;29.02;;;11.15;;
55063;SDS011;40963;52.168;21.296;2024-02-16T06:34:06;26.02;;;11.38;;
55063;SDS011;40963;52.168;21.296;2024-02-16T06:36:34;25.42;;;9.60;;
55063;SDS011;40963;52.168;21.296;2024-02-16T06:39:00;22.92;;;8.85;;
55063;SDS011;40963;52.168;21.296;2024-02-16T06:41:25;33.67;;;10.45;;
55063;SDS011;40963;52.168;21.296;2024-02-16T06:43:51;30.20;;;14.68;;
55063;SDS011;40963;52.168;21.296;2024-02-16T06:46:17;27.45;;;13.00;;
55063;SDS011;40963;52.168;21.296;2024-02-16T06:48:42;30.15;;;10.93;;
55063;SDS011;40963;52.168;21.296;2024-02-16T06:51:08;34.38;;;11.43;;
55063;SDS011;40963;52.168;21.296;2024-02-16T06:53:34;21.02;;;10.43;;
55063;SDS011;40963;52.168;21.296;2024-02-16T06:55:59;29.70;;;10.63;;
55063;SDS011;40963;52.168;21.296;2024-02-16T06:58:25;28.05;;;10.18;;
55063;SDS011;40963;52.168;21.296;2024-02-16T07:00:50;24.95;;;10.48;;
55063;SDS011;40963;52.168;21.296;2024-02-16T07:03:16;19.77;;;8.70;;
55063;SDS011;40963;52.168;21.296;2024-02-16T07:05:43;22.13;;;8.00;;
55063;SDS011;40963;52.168;21.296;2024-02-16T07:08:08;21.45;;;8.50;;
55063;SDS011;40963;52.168;21.296;2024-02-16T07:10:34;25.45;;;9.32;;
55063;SDS011;40963;52.168;21.296;2024-02-16T07:13:00;17.65;;;8.25;;
55063;SDS011;40963;52.168;21.296;2024-02-16T07:15:26;20.98;;;8.25;;
55063;SDS011;40963;52.168;21.296;2024-02-16T07:17:52;26.65;;;8.27;;
55063;SDS011;40963;52.168;21.296;2024-02-16T07:20:18;23.48;;;9.20;;
55063;SDS011;40963;52.168;21.296;2024-02-16T07:22:44;18.30;;;8.48;;
55063;SDS011;40963;52.168;21.296;2024-02-16T07:25:11;27.77;;;8.85;;
55063;SDS011;40963;52.168;21.296;2024-02-16T07:27:37;16.48;;;7.95;;
55063;SDS011;40963;52.168;21.296;2024-02-16T07:30:03;26.25;;;9.23;;
55063;SDS011;40963;52.168;21.296;2024-02-16T07:32:29;18.40;;;9.30;;
55063;SDS011;40963;52.168;21.296;2024-02-16T07:34:55;27.90;;;9.85;;
55063;SDS011;40963;52.168;21.296;2024-02-16T07:37:20;21.95;;;8.90;;
55063;SDS011;40963;52.168;21.296;2024-02-16T07:39:46;19.02;;;8.50;;
55063;SDS011;40963;52.168;21.296;2024-02-16T07:42:11;17.83;;;8.65;;
55063;SDS011;40963;52.168;21.296;2024-02-16T07:44:38;20.45;;;8.18;;
55063;SDS011;40963;52.168;21.296;2024-02-16T07:47:04;24.17;;;7.53;;
55063;SDS011;40963;52.168;21.296;2024-02-16T07:49:30;24.95;;;7.90;;
55063;SDS011;40963;52.168;21.296;2024-02-16T07:51:55;16.60;;;7.28;;
55063;SDS011;40963;52.168;21.296;2024-02-16T07:54:22;27.75;;;7.93;;
55063;SDS011;40963;52.168;21.296;2024-02-16T07:56:48;16.40;;;7.97;;
55063;SDS011;40963;52.168;21.296;2024-02-16T07:59:13;13.55;;;6.80;;
55063;SDS011;40963;52.168;21.296;2024-02-16T08:01:39;17.08;;;7.97;;
55063;SDS011;40963;52.168;21.296;2024-02-16T08:04:05;19.95;;;8.75;;
55063;SDS011;40963;52.168;21.296;2024-02-16T08:06:31;24.10;;;8.85;;
55063;SDS011;40963;52.168;21.296;2024-02-16T08:08:56;23.63;;;8.75;;
55063;SDS011;40963;52.168;21.296;2024-02-16T08:11:22;21.83;;;8.60;;
55063;SDS011;40963;52.168;21.296;2024-02-16T08:13:48;17.55;;;7.75;;
55063;SDS011;40963;52.168;21.296;2024-02-16T08:16:14;22.65;;;6.47;;
55063;SDS011;40963;52.168;21.296;2024-02-16T08:18:39;18.40;;;7.38;;
55063;SDS011;40963;52.168;21.296;2024-02-16T08:21:05;16.20;;;6.97;;
55063;SDS011;40963;52.168;21.296;2024-02-16T08:23:30;15.60;;;6.55;;
55063;SDS011;40963;52.168;21.296;2024-02-16T08:25:56;14.38;;;7.00;;
55063;SDS011;40963;52.168;21.296;2024-02-16T08:28:25;12.70;;;6.75;;
55063;SDS011;40963;52.168;21.296;2024-02-16T08:30:51;16.58;;;7.93;;
55063;SDS011;40963;52.168;21.296;2024-02-16T08:33:17;16.50;;;7.07;;
55063;SDS011;40963;52.168;21.296;2024-02-16T08:35:42;13.73;;;6.60;;
55063;SDS011;40963;52.168;21.296;2024-02-16T08:38:08;13.63;;;7.05;;
55063;SDS011;40963;52.168;21.296;2024-02-16T08:40:36;15.70;;;8.00;;
55063;SDS011;40963;52.168;21.296;2024-02-16T08:43:02;17.65;;;7.38;;
55063;SDS011;40963;52.168;21.296;2024-02-16T08:45:29;18.30;;;7.25;;
55063;SDS011;40963;52.168;21.296;2024-02-16T08:47:55;18.00;;;7.70;;
55063;SDS011;40963;52.168;21.296;2024-02-16T08:50:22;13.27;;;7.22;;
55063;SDS011;40963;52.168;21.296;2024-02-16T08:52:49;19.45;;;7.57;;
55063;SDS011;40963;52.168;21.296;2024-02-16T08:55:15;13.40;;;7.00;;
55063;SDS011;40963;52.168;21.296;2024-02-16T08:57:41;20.48;;;7.43;;
55063;SDS011;40963;52.168;21.296;2024-02-16T09:00:07;16.30;;;7.05;;
55063;SDS011;40963;52.168;21.296;2024-02-16T09:02:34;14.07;;;7.32;;
55063;SDS011;40963;52.168;21.296;2024-02-16T09:04:59;17.13;;;7.05;;
55063;SDS011;40963;52.168;21.296;2024-02-16T09:07:25;19.75;;;7.40;;
55063;SDS011;40963;52.168;21.296;2024-02-16T09:09:51;20.92;;;9.05;;
55063;SDS011;40963;52.168;21.296;2024-02-16T09:12:17;15.38;;;6.90;;
55063;SDS011;40963;52.168;21.296;2024-02-16T09:14:42;16.58;;;7.18;;
55063;SDS011;40963;52.168;21.296;2024-02-16T09:17:08;18.45;;;7.13;;
55063;SDS011;40963;52.168;21.296;2024-02-16T09:19:33;17.42;;;6.88;;
55063;SDS011;40963;52.168;21.296;2024-02-16T09:21:59;15.60;;;6.50;;
55063;SDS011;40963;52.168;21.296;2024-02-16T09:24:27;16.08;;;6.85;;
55063;SDS011;40963;52.168;21.296;2024-02-16T09:26:54;16.30;;;6.68;;
55063;SDS011;40963;52.168;21.296;2024-02-16T09:29:20;11.90;;;6.38;;
55063;SDS011;40963;52.168;21.296;2024-02-16T09:31:48;12.25;;;6.47;;
55063;SDS011;40963;52.168;21.296;2024-02-16T09:34:14;17.92;;;6.72;;
55063;SDS011;40963;52.168;21.296;2024-02-16T09:36:39;13.63;;;6.07;;
55063;SDS011;40963;52.168;21.296;2024-02-16T09:39:05;17.33;;;7.07;;
55063;SDS011;40963;52.168;21.296;2024-02-16T09:41:33;12.55;;;6.05;;
55063;SDS011;40963;52.168;21.296;2024-02-16T09:44:02;16.20;;;6.93;;
55063;SDS011;40963;52.168;21.296;2024-02-16T09:46:28;24.65;;;8.43;;
55063;SDS011;40963;52.168;21.296;2024-02-16T09:48:55;12.82;;;6.25;;
55063;SDS011;40963;52.168;21.296;2024-02-16T09:51:25;16.25;;;6.55;;
55063;SDS011;40963;52.168;21.296;2024-02-16T09:53:51;13.65;;;6.28;;
55063;SDS011;40963;52.168;21.296;2024-02-16T09:56:22;15.10;;;6.28;;
55063;SDS011;40963;52.168;21.296;2024-02-16T09:58:51;14.68;;;5.82;;
55063;SDS011;40963;52.168;21.296;2024-02-16T10:01:18;14.32;;;6.35;;
55063;SDS011;40963;52.168;21.296;2024-02-16T10:03:45;18.70;;;7.32;;
55063;SDS011;40963;52.168;21.296;2024-02-16T10:06:11;11.32;;;5.53;;
55063;SDS011;40963;52.168;21.296;2024-02-16T10:08:50;9.95;;;5.78;;
55063;SDS011;40963;52.168;21.296;2024-02-16T10:11:17;12.15;;;6.07;;
55063;SDS011;40963;52.168;21.296;2024-02-16T10:14:03;12.55;;;5.18;;
55063;SDS011;40963;52.168;21.296;2024-02-16T10:16:29;15.55;;;6.15;;
55063;SDS011;40963;52.168;21.296;2024-02-16T10:18:56;20.95;;;7.00;;
55063;SDS011;40963;52.168;21.296;2024-02-16T10:21:29;17.17;;;5.85;;
55063;SDS011;40963;52.168;21.296;2024-02-16T10:23:56;15.25;;;5.65;;
55063;SDS011;40963;52.168;21.296;2024-02-16T10:26:22;30.38;;;9.50;;
55063;SDS011;40963;52.168;21.296;2024-02-16T10:28:48;18.63;;;7.40;;
55063;SDS011;40963;52.168;21.296;2024-02-16T10:31:19;16.10;;;6.88;;
55063;SDS011;40963;52.168;21.296;2024-02-16T10:33:52;18.48;;;6.28;;
55063;SDS011;40963;52.168;21.296;2024-02-16T10:36:24;11.32;;;5.22;;
55063;SDS011;40963;52.168;21.296;2024-02-16T10:38:51;10.70;;;5.40;;
55063;SDS011;40963;52.168;21.296;2024-02-16T10:41:18;14.80;;;5.47;;
55063;SDS011;40963;52.168;21.296;2024-02-16T10:43:47;11.55;;;6.35;;
55063;SDS011;40963;52.168;21.296;2024-02-16T10:46:17;17.88;;;6.70;;
55063;SDS011;40963;52.168;21.296;2024-02-16T10:48:43;12.90;;;6.05;;
55063;SDS011;40963;52.168;21.296;2024-02-16T10:51:08;13.43;;;6.15;;
55063;SDS011;40963;52.168;21.296;2024-02-16T10:53:36;14.43;;;7.10;;
55063;SDS011;40963;52.168;21.296;2024-02-16T10:56:03;9.70;;;5.43;;
55063;SDS011;40963;52.168;21.296;2024-02-16T10:58:28;9.77;;;6.18;;
55063;SDS011;40963;52.168;21.296;2024-02-16T11:00:55;18.08;;;5.40;;
55063;SDS011;40963;52.168;21.296;2024-02-16T11:03:22;16.00;;;5.82;;
55063;SDS011;40963;52.168;21.296;2024-02-16T11:05:52;15.73;;;7.25;;
55063;SDS011;40963;52.168;21.296;2024-02-16T11:08:18;12.75;;;6.03;;
55063;SDS011;40963;52.168;21.296;2024-02-16T11:11:00;15.05;;;6.85;;
55063;SDS011;40963;52.168;21.296;2024-02-16T11:13:31;19.75;;;8.52;;
55063;SDS011;40963;52.168;21.296;2024-02-16T11:18:25;10.32;;;5.50;;
55063;SDS011;40963;52.168;21.296;2024-02-16T11:20:55;10.95;;;5.50;;
55063;SDS011;40963;52.168;21.296;2024-02-16T11:23:27;17.40;;;6.13;;
55063;SDS011;40963;52.168;21.296;2024-02-16T11:26:03;12.63;;;6.85;;
55063;SDS011;40963;52.168;21.296;2024-02-16T11:28:34;18.17;;;8.60;;
55063;SDS011;40963;52.168;21.296;2024-02-16T11:31:00;15.05;;;7.15;;
55063;SDS011;40963;52.168;21.296;2024-02-16T11:33:27;9.90;;;5.60;;
55063;SDS011;40963;52.168;21.296;2024-02-16T11:35:57;8.88;;;5.40;;
55063;SDS011;40963;52.168;21.296;2024-02-16T11:38:24;13.27;;;6.07;;
55063;SDS011;40963;52.168;21.296;2024-02-16T11:43:23;13.38;;;5.70;;
55063;SDS011;40963;52.168;21.296;2024-02-16T11:45:49;12.85;;;6.00;;
55063;SDS011;40963;52.168;21.296;2024-02-16T11:48:33;10.60;;;5.50;;
55063;SDS011;40963;52.168;21.296;2024-02-16T11:51:00;8.85;;;5.03;;
55063;SDS011;40963;52.168;21.296;2024-02-16T11:53:27;8.90;;;5.32;;
55063;SDS011;40963;52.168;21.296;2024-02-16T11:55:53;8.80;;;5.30;;
55063;SDS011;40963;52.168;21.296;2024-02-16T11:58:18;9.75;;;5.28;;
55063;SDS011;40963;52.168;21.296;2024-02-16T12:00:45;16.42;;;6.20;;
55063;SDS011;40963;52.168;21.296;2024-02-16T12:03:33;12.02;;;4.75;;
55063;SDS011;40963;52.168;21.296;2024-02-16T12:05:59;9.25;;;5.40;;
55063;SDS011;40963;52.168;21.296;2024-02-16T12:08:32;13.32;;;5.53;;
55063;SDS011;40963;52.168;21.296;2024-02-16T12:10:59;13.25;;;5.35;;
55063;SDS011;40963;52.168;21.296;2024-02-16T12:13:25;10.18;;;5.45;;
55063;SDS011;40963;52.168;21.296;2024-02-16T12:15:51;8.85;;;5.53;;
55063;SDS011;40963;52.168;21.296;2024-02-16T12:20:56;12.38;;;5.45;;
55063;SDS011;40963;52.168;21.296;2024-02-16T12:23:25;10.48;;;5.30;;
55063;SDS011;40963;52.168;21.296;2024-02-16T12:25:51;9.52;;;4.88;;
55063;SDS011;40963;52.168;21.296;2024-02-16T12:28:18;17.67;;;5.95;;
55063;SDS011;40963;52.168;21.296;2024-02-16T12:30:45;22.95;;;6.07;;
55063;SDS011;40963;52.168;21.296;2024-02-16T12:33:11;12.05;;;6.10;;
55063;SDS011;40963;52.168;21.296;2024-02-16T12:35:37;7.45;;;4.60;;
55063;SDS011;40963;52.168;21.296;2024-02-16T12:38:02;8.13;;;4.38;;
55063;SDS011;40963;52.168;21.296;2024-02-16T12:40:28;9.20;;;4.88;;
55063;SDS011;40963;52.168;21.296;2024-02-16T12:42:54;13.23;;;5.07;;
55063;SDS011;40963;52.168;21.296;2024-02-16T12:45:19;10.95;;;5.50;;
55063;SDS011;40963;52.168;21.296;2024-02-16T12:47:45;11.02;;;5.53;;
55063;SDS011;40963;52.168;21.296;2024-02-16T12:50:12;9.88;;;4.80;;
55063;SDS011;40963;52.168;21.296;2024-02-16T12:52:37;8.40;;;5.10;;
55063;SDS011;40963;52.168;21.296;2024-02-16T12:55:05;6.80;;;4.40;;
55063;SDS011;40963;52.168;21.296;2024-02-16T12:57:31;8.15;;;5.38;;
55063;SDS011;40963;52.168;21.296;2024-02-16T12:59:56;11.50;;;5.38;;
55063;SDS011;40963;52.168;21.296;2024-02-16T13:02:22;13.60;;;5.65;;
55063;SDS011;40963;52.168;21.296;2024-02-16T13:04:48;10.77;;;6.03;;
55063;SDS011;40963;52.168;21.296;2024-02-16T13:07:13;11.55;;;5.68;;
55063;SDS011;40963;52.168;21.296;2024-02-16T13:09:39;10.05;;;5.53;;
55063;SDS011;40963;52.168;21.296;2024-02-16T13:12:05;9.43;;;5.53;;
55063;SDS011;40963;52.168;21.296;2024-02-16T13:14:31;11.85;;;5.68;;
55063;SDS011;40963;52.168;21.296;2024-02-16T13:16:56;12.25;;;6.25;;
55063;SDS011;40963;52.168;21.296;2024-02-16T13:19:22;12.70;;;5.55;;
55063;SDS011;40963;52.168;21.296;2024-02-16T13:21:48;11.27;;;5.80;;
55063;SDS011;40963;52.168;21.296;2024-02-16T13:24:15;12.00;;;5.43;;
55063;SDS011;40963;52.168;21.296;2024-02-16T13:26:41;11.73;;;5.90;;
55063;SDS011;40963;52.168;21.296;2024-02-16T13:29:06;11.63;;;5.90;;
55063;SDS011;40963;52.168;21.296;2024-02-16T13:31:32;11.90;;;5.97;;
55063;SDS011;40963;52.168;21.296;2024-02-16T13:33:58;16.67;;;6.25;;
55063;SDS011;40963;52.168;21.296;2024-02-16T13:36:24;11.27;;;6.00;;
55063;SDS011;40963;52.168;21.296;2024-02-16T13:38:49;12.88;;;5.88;;
55063;SDS011;40963;52.168;21.296;2024-02-16T13:41:15;15.48;;;5.82;;
55063;SDS011;40963;52.168;21.296;2024-02-16T13:43:41;10.60;;;5.85;;
55063;SDS011;40963;52.168;21.296;2024-02-16T13:46:06;20.25;;;6.63;;
55063;SDS011;40963;52.168;21.296;2024-02-16T13:48:32;12.55;;;6.22;;
55063;SDS011;40963;52.168;21.296;2024-02-16T13:50:59;13.23;;;6.15;;
55063;SDS011;40963;52.168;21.296;2024-02-16T13:53:25;12.85;;;6.00;;
55063;SDS011;40963;52.168;21.296;2024-02-16T13:55:50;10.82;;;5.97;;
55063;SDS011;40963;52.168;21.296;2024-02-16T13:58:16;16.65;;;6.30;;
55063;SDS011;40963;52.168;21.296;2024-02-16T14:00:42;16.73;;;6.22;;
55063;SDS011;40963;52.168;21.296;2024-02-16T14:03:08;14.73;;;5.50;;
55063;SDS011;40963;52.168;21.296;2024-02-16T14:05:38;15.85;;;6.55;;
55063;SDS011;40963;52.168;21.296;2024-02-16T14:08:04;16.17;;;6.93;;
55063;SDS011;40963;52.168;21.296;2024-02-16T14:10:31;13.32;;;6.15;;
55063;SDS011;40963;52.168;21.296;2024-02-16T14:12:57;16.50;;;6.32;;
55063;SDS011;40963;52.168;21.296;2024-02-16T14:15:23;13.02;;;6.13;;
55063;SDS011;40963;52.168;21.296;2024-02-16T14:17:48;10.05;;;5.82;;
55063;SDS011;40963;52.168;21.296;2024-02-16T14:20:14;12.85;;;6.20;;
55063;SDS011;40963;52.168;21.296;2024-02-16T14:22:40;22.83;;;8.02;;
55063;SDS011;40963;52.168;21.296;2024-02-16T14:25:06;13.63;;;6.18;;